createdAt,value
2022-09-10T00:02:15.472Z,96.80
2022-09-10T00:04:42.855Z,96.70
2022-09-10T00:07:10.010Z,96.70
2022-09-10T00:09:37.776Z,96.70
2022-09-10T00:12:05.143Z,96.60
2022-09-10T00:14:32.088Z,97.00
2022-09-10T00:16:58.901Z,96.50
2022-09-10T00:19:26.744Z,96.40
2022-09-10T00:21:53.655Z,96.40
2022-09-10T00:24:22.503Z,96.10
2022-09-10T00:26:49.891Z,96.10
2022-09-10T00:29:17.076Z,96.00
2022-09-10T00:31:45.038Z,95.80
2022-09-10T00:34:12.811Z,96.00
2022-09-10T00:36:41.636Z,96.00
2022-09-10T00:39:11.298Z,95.80
2022-09-10T00:41:40.829Z,95.60
2022-09-10T00:44:39.734Z,95.60
2022-09-10T00:47:31.828Z,95.40
2022-09-10T00:50:25.704Z,95.40
2022-09-10T00:52:56.225Z,95.70
2022-09-10T00:55:23.687Z,96.10
2022-09-10T00:57:54.888Z,96.40
2022-09-10T01:00:22.659Z,96.70
2022-09-10T01:02:49.556Z,97.10
2022-09-10T01:05:17.691Z,97.60
2022-09-10T01:07:44.783Z,97.80
2022-09-10T01:10:18.594Z,98.00
2022-09-10T01:13:14.939Z,98.40
2022-09-10T01:15:47.852Z,99.00
2022-09-10T01:18:36.211Z,99.10
2022-09-10T01:21:31.606Z,99.50
2022-09-10T01:24:13.813Z,99.90
2022-09-10T01:27:02.377Z,99.90
2022-09-10T01:29:44.582Z,99.90
2022-09-10T01:32:17.397Z,99.90
2022-09-10T01:35:14.507Z,99.90
2022-09-10T01:37:52.005Z,99.90
2022-09-10T01:40:19.470Z,99.90
2022-09-10T01:42:46.407Z,99.90
2022-09-10T01:45:15.967Z,99.90
2022-09-10T01:48:19.132Z,99.90
2022-09-10T01:51:09.107Z,99.90
2022-09-10T01:53:48.056Z,99.90
2022-09-10T01:56:23.652Z,99.90
2022-09-10T01:58:54.711Z,99.90
2022-09-10T02:01:48.005Z,99.90
2022-09-10T02:04:16.946Z,99.90
2022-09-10T02:06:47.869Z,99.90
2022-09-10T02:09:16.630Z,99.90
2022-09-10T02:11:55.238Z,99.90
2022-09-10T02:14:49.896Z,99.90
2022-09-10T02:17:33.626Z,99.90
2022-09-10T02:20:02.213Z,99.90
2022-09-10T02:22:32.357Z,99.90
2022-09-10T02:24:59.697Z,99.90
2022-09-10T02:27:26.681Z,99.90
2022-09-10T02:30:02.271Z,99.90
2022-09-10T02:32:30.400Z,99.90
2022-09-10T02:34:57.508Z,99.90
2022-09-10T02:37:28.354Z,99.90
2022-09-10T02:39:55.479Z,99.90
2022-09-10T02:42:25.203Z,99.90
2022-09-10T02:44:53.545Z,99.90
2022-09-10T02:47:20.716Z,99.90
2022-09-10T02:49:47.582Z,99.90
2022-09-10T02:52:14.543Z,99.90
2022-09-10T02:54:41.508Z,99.90
2022-09-10T02:57:12.217Z,99.90
2022-09-10T02:59:39.103Z,99.90
2022-09-10T03:02:06.122Z,99.90
2022-09-10T03:04:33.268Z,99.90
2022-09-10T03:07:00.506Z,99.90
2022-09-10T03:09:29.052Z,99.90
2022-09-10T03:11:56.276Z,99.90
2022-09-10T03:14:25.869Z,99.90
2022-09-10T03:16:52.949Z,99.90
2022-09-10T03:19:21.472Z,99.90
2022-09-10T03:21:48.395Z,99.90
2022-09-10T03:24:15.527Z,99.90
2022-09-10T03:26:44.429Z,99.90
2022-09-10T03:29:12.722Z,99.90
2022-09-10T03:31:40.635Z,99.90
2022-09-10T03:34:08.103Z,99.90
2022-09-10T03:36:34.928Z,99.90
2022-09-10T03:39:04.014Z,99.90
2022-09-10T03:41:32.002Z,99.90
2022-09-10T03:43:59.647Z,99.90
2022-09-10T03:46:27.494Z,99.90
2022-09-10T03:48:57.327Z,99.90
2022-09-10T03:51:27.485Z,99.90
2022-09-10T03:53:55.860Z,99.90
2022-09-10T03:56:23.089Z,99.90
2022-09-10T03:58:50.231Z,99.90
2022-09-10T04:01:18.589Z,99.90
2022-09-10T04:03:48.464Z,99.90
2022-09-10T04:06:16.498Z,99.90
2022-09-10T04:08:46.448Z,99.90
2022-09-10T04:11:16.100Z,99.90
2022-09-10T04:13:44.020Z,99.90
2022-09-10T04:16:12.157Z,99.90
2022-09-10T04:18:40.327Z,99.90
2022-09-10T04:21:07.671Z,99.90
2022-09-10T04:23:35.427Z,99.90
2022-09-10T04:26:17.567Z,99.90
2022-09-10T04:28:47.539Z,99.90
2022-09-10T04:31:16.205Z,99.90
2022-09-10T04:33:43.240Z,99.90
2022-09-10T04:36:10.075Z,99.90
2022-09-10T04:38:41.609Z,99.90
2022-09-10T04:41:10.508Z,99.90
2022-09-10T04:43:37.940Z,99.90
2022-09-10T04:46:06.405Z,99.90
2022-09-10T04:48:35.145Z,99.90
2022-09-10T04:51:18.267Z,99.90
2022-09-10T04:53:51.371Z,99.90
2022-09-10T04:56:21.903Z,99.90
2022-09-10T04:58:49.321Z,99.90
2022-09-10T05:01:16.426Z,99.90
2022-09-10T05:03:45.107Z,99.90
2022-09-10T05:06:12.734Z,99.90
2022-09-10T05:08:40.332Z,99.90
2022-09-10T05:11:07.642Z,99.90
2022-09-10T05:13:34.671Z,99.90
2022-09-10T05:16:02.320Z,99.90
2022-09-10T05:18:33.666Z,99.90
2022-09-10T05:21:00.634Z,99.90
2022-09-10T05:23:28.685Z,99.90
2022-09-10T05:25:57.583Z,99.90
2022-09-10T05:28:24.958Z,99.90
2022-09-10T05:30:52.412Z,99.90
2022-09-10T05:33:22.544Z,99.90
2022-09-10T05:35:51.834Z,99.90
2022-09-10T05:38:19.436Z,99.90
2022-09-10T05:40:47.048Z,99.90
2022-09-10T05:43:14.114Z,99.90
2022-09-10T05:45:41.719Z,99.90
2022-09-10T05:48:08.757Z,99.90
2022-09-10T05:50:35.558Z,99.90
2022-09-10T05:53:03.816Z,99.90
2022-09-10T05:55:31.352Z,99.90
2022-09-10T05:57:58.601Z,99.90
2022-09-10T06:00:26.250Z,99.90
2022-09-10T06:02:58.596Z,99.90
2022-09-10T06:05:33.106Z,99.90
2022-09-10T06:08:05.406Z,99.90
2022-09-10T06:10:37.651Z,99.90
2022-09-10T06:13:04.586Z,99.90
2022-09-10T06:15:32.687Z,99.90
2022-09-10T06:18:00.264Z,99.90
2022-09-10T06:20:27.869Z,99.90
2022-09-10T06:22:54.963Z,99.90
2022-09-10T06:25:22.939Z,99.90
2022-09-10T06:27:50.431Z,99.90
2022-09-10T06:30:17.991Z,99.90
2022-09-10T06:32:47.717Z,99.90
2022-09-10T06:35:15.597Z,99.90
2022-09-10T06:37:43.439Z,99.90
2022-09-10T06:40:11.722Z,99.90
2022-09-10T06:42:40.930Z,99.90
2022-09-10T06:45:13.831Z,99.90
2022-09-10T06:48:37.064Z,99.90
2022-09-10T06:50:53.434Z,99.90
2022-09-10T06:53:22.228Z,99.90
2022-09-10T06:55:50.954Z,99.90
2022-09-10T06:58:20.537Z,99.90
2022-09-10T07:00:47.901Z,99.90
2022-09-10T07:03:16.864Z,99.90
2022-09-10T07:05:45.568Z,99.90
2022-09-10T07:08:14.188Z,99.90
2022-09-10T07:10:42.220Z,99.90
2022-09-10T07:13:09.174Z,99.90
2022-09-10T07:15:36.860Z,99.90
2022-09-10T07:18:04.200Z,99.90
2022-09-10T07:20:32.829Z,99.90
2022-09-10T07:22:59.799Z,99.90
2022-09-10T07:25:29.671Z,99.90
2022-09-10T07:28:03.484Z,99.90
2022-09-10T07:30:35.853Z,99.90
2022-09-10T07:33:02.837Z,99.90
2022-09-10T07:35:31.479Z,99.90
2022-09-10T07:38:00.272Z,99.90
2022-09-10T07:40:28.281Z,99.90
2022-09-10T07:42:56.323Z,99.90
2022-09-10T07:45:23.549Z,99.90
2022-09-10T07:47:51.240Z,99.90
2022-09-10T07:50:19.302Z,99.90
2022-09-10T07:52:49.643Z,99.90
2022-09-10T07:55:18.217Z,99.90
2022-09-10T07:57:45.631Z,99.90
2022-09-10T08:00:15.125Z,99.90
2022-09-10T08:02:42.960Z,99.90
2022-09-10T08:05:14.261Z,99.90
2022-09-10T08:07:41.941Z,99.90
2022-09-10T08:10:10.707Z,99.90
2022-09-10T08:12:40.984Z,99.90
2022-09-10T08:15:09.354Z,99.90
2022-09-10T08:17:38.615Z,99.90
2022-09-10T08:20:08.311Z,99.90
2022-09-10T08:22:35.796Z,99.90
2022-09-10T08:25:03.656Z,99.90
2022-09-10T08:27:34.224Z,99.90
2022-09-10T08:30:04.033Z,99.90
2022-09-10T08:32:31.108Z,99.90
2022-09-10T08:34:58.233Z,99.90
2022-09-10T08:37:26.093Z,99.90
2022-09-10T08:39:54.279Z,99.90
2022-09-10T08:42:46.406Z,99.90
2022-09-10T08:45:21.072Z,99.90
2022-09-10T08:48:06.632Z,99.90
2022-09-10T08:51:09.299Z,99.90
2022-09-10T08:53:50.050Z,99.90
2022-09-10T08:56:21.335Z,99.90
2022-09-10T08:59:03.273Z,99.90
2022-09-10T09:01:51.627Z,99.90
2022-09-10T09:04:44.994Z,99.90
2022-09-10T09:07:19.884Z,99.90
2022-09-10T09:09:51.829Z,99.90
2022-09-10T09:12:36.008Z,99.90
2022-09-10T09:15:15.922Z,99.90
2022-09-10T09:18:20.080Z,99.90
2022-09-10T09:20:51.601Z,99.90
2022-09-10T09:23:25.118Z,99.90
2022-09-10T09:26:04.145Z,99.90
2022-09-10T09:28:50.274Z,99.90
2022-09-10T09:31:25.708Z,99.90
2022-09-10T09:34:07.417Z,99.90
2022-09-10T09:36:42.446Z,99.90
2022-09-10T09:39:37.439Z,99.90
2022-09-10T09:42:19.946Z,99.90
2022-09-10T09:45:00.595Z,99.90
2022-09-10T09:47:27.908Z,99.90
2022-09-10T09:49:55.362Z,99.90
2022-09-10T09:52:24.302Z,99.90
2022-09-10T09:55:14.318Z,99.90
2022-09-10T09:57:42.822Z,99.90
2022-09-10T10:00:36.526Z,99.90
2022-09-10T10:03:20.524Z,99.90
2022-09-10T10:05:48.840Z,99.90
2022-09-10T10:08:38.280Z,99.90
2022-09-10T10:11:06.310Z,99.90
2022-09-10T10:13:45.574Z,99.90
2022-09-10T10:16:18.887Z,99.90
2022-09-10T10:18:46.268Z,99.90
2022-09-10T10:21:33.352Z,99.90
2022-09-10T10:24:01.216Z,99.90
2022-09-10T10:26:35.715Z,99.90
2022-09-10T10:29:18.601Z,99.90
2022-09-10T10:31:48.266Z,99.90
2022-09-10T10:34:25.177Z,99.90
2022-09-10T10:36:59.682Z,99.90
2022-09-10T10:39:45.287Z,99.90
2022-09-10T10:42:21.063Z,99.90
2022-09-10T10:45:18.137Z,99.90
2022-09-10T10:47:51.416Z,99.90
2022-09-10T10:50:32.094Z,99.90
2022-09-10T10:53:04.879Z,99.90
2022-09-10T10:55:40.494Z,99.90
2022-09-10T10:58:35.470Z,99.90
2022-09-10T11:01:21.789Z,99.90
2022-09-10T11:04:10.465Z,99.90
2022-09-10T11:06:42.713Z,99.90
2022-09-10T11:09:27.259Z,99.90
2022-09-10T11:12:05.671Z,99.90
2022-09-10T11:14:48.409Z,99.90
2022-09-10T11:17:22.520Z,99.90
2022-09-10T11:20:26.664Z,99.90
2022-09-10T11:22:55.758Z,99.90
2022-09-10T11:25:37.919Z,99.90
2022-09-10T11:28:15.488Z,99.90
2022-09-10T11:30:48.442Z,99.90
2022-09-10T11:33:31.027Z,99.90
2022-09-10T11:36:08.891Z,99.90
2022-09-10T11:38:50.183Z,99.90
2022-09-10T11:41:25.461Z,99.90
2022-09-10T11:44:04.495Z,99.90
2022-09-10T11:47:14.370Z,99.90
2022-09-10T11:49:55.270Z,99.90
2022-09-10T11:52:25.672Z,99.90
2022-09-10T11:54:54.150Z,99.90
2022-09-10T11:57:35.425Z,99.90
2022-09-10T12:00:11.912Z,99.90
2022-09-10T12:03:22.177Z,99.90
2022-09-10T12:06:02.135Z,99.90
2022-09-10T12:08:43.944Z,99.90
2022-09-10T12:11:22.145Z,99.90
2022-09-10T12:13:52.659Z,99.90
2022-09-10T12:16:37.684Z,99.90
2022-09-10T12:19:17.784Z,99.90
2022-09-10T12:21:57.921Z,99.90
2022-09-10T12:24:33.426Z,99.90
2022-09-10T12:27:02.032Z,99.90
2022-09-10T12:29:37.287Z,99.90
2022-09-10T12:32:22.313Z,99.90
2022-09-10T12:35:27.452Z,99.90
2022-09-10T12:38:32.742Z,99.90
2022-09-10T12:41:00.517Z,99.90
2022-09-10T12:43:42.419Z,99.90
2022-09-10T12:46:09.824Z,99.90
2022-09-10T12:48:44.971Z,99.90
2022-09-10T12:51:20.522Z,99.90
2022-09-10T12:54:17.516Z,99.90
2022-09-10T12:57:08.866Z,99.90
2022-09-10T13:00:23.597Z,99.90
2022-09-10T13:03:11.374Z,99.90
2022-09-10T13:05:44.150Z,99.90
2022-09-10T13:08:18.883Z,99.90
2022-09-10T13:10:50.332Z,99.90
2022-09-10T13:13:37.584Z,99.90
2022-09-10T13:16:06.513Z,99.90
2022-09-10T13:18:36.174Z,99.90
2022-09-10T13:21:24.858Z,99.90
2022-09-10T13:23:55.909Z,99.90
2022-09-10T13:26:28.907Z,99.90
2022-09-10T13:28:56.228Z,99.90
2022-09-10T13:31:31.594Z,99.90
2022-09-10T13:34:14.225Z,99.90
2022-09-10T13:37:31.814Z,99.90
2022-09-10T13:40:19.583Z,99.90
2022-09-10T13:43:10.311Z,99.90
2022-09-10T13:45:49.302Z,99.90
2022-09-10T13:48:24.184Z,99.90
2022-09-10T13:51:01.631Z,99.90
2022-09-10T13:53:29.851Z,99.90
2022-09-10T13:55:58.650Z,99.90
2022-09-10T13:58:30.767Z,99.90
2022-09-10T14:01:03.437Z,99.90
2022-09-10T14:03:33.170Z,99.90
2022-09-10T14:06:29.455Z,99.90
2022-09-10T14:08:59.664Z,99.90
2022-09-10T14:11:30.072Z,99.90
2022-09-10T14:14:12.940Z,99.90
2022-09-10T14:16:59.981Z,99.90
2022-09-10T14:19:59.239Z,99.90
2022-09-10T14:22:27.192Z,99.90
2022-09-10T14:25:00.658Z,99.90
2022-09-10T14:27:32.720Z,99.90
2022-09-10T14:30:18.510Z,99.90
2022-09-10T14:32:46.338Z,99.90
2022-09-10T14:35:39.372Z,99.90
2022-09-10T14:38:29.411Z,99.90
2022-09-10T14:41:06.661Z,99.90
2022-09-10T14:43:40.489Z,99.90
2022-09-10T14:46:10.022Z,99.90
2022-09-10T14:49:08.100Z,99.90
2022-09-10T14:51:35.138Z,99.90
2022-09-10T14:54:01.985Z,99.90
2022-09-10T14:56:31.022Z,99.90
2022-09-10T14:59:19.556Z,99.90
2022-09-10T15:01:48.416Z,99.90
2022-09-10T15:04:23.639Z,99.90
2022-09-10T15:06:57.530Z,99.90
2022-09-10T15:09:26.752Z,99.90
2022-09-10T15:11:54.519Z,99.90
2022-09-10T15:14:22.552Z,99.90
2022-09-10T15:16:52.170Z,99.90
2022-09-10T15:19:23.099Z,99.90
2022-09-10T15:21:53.318Z,99.90
2022-09-10T15:24:22.883Z,99.90
2022-09-10T15:26:50.682Z,99.90
2022-09-10T15:29:20.653Z,99.90
2022-09-10T15:31:49.051Z,99.90
2022-09-10T15:34:16.098Z,99.90
2022-09-10T15:36:43.052Z,99.90
2022-09-10T15:39:12.759Z,99.90
2022-09-10T15:41:44.936Z,99.90
2022-09-10T15:44:12.260Z,99.90
2022-09-10T15:46:45.139Z,99.90
2022-09-10T15:49:12.047Z,99.90
2022-09-10T15:51:39.296Z,99.90
2022-09-10T15:54:07.154Z,99.90
2022-09-10T15:56:34.088Z,99.90
2022-09-10T15:59:01.831Z,99.90
2022-09-10T16:01:29.102Z,99.90
2022-09-10T16:03:59.181Z,99.90
2022-09-10T16:06:31.242Z,99.90
2022-09-10T16:09:03.506Z,99.90
2022-09-10T16:11:32.307Z,99.90
2022-09-10T16:14:04.362Z,99.90
2022-09-10T16:16:32.632Z,99.90
2022-09-10T16:19:00.754Z,99.90
2022-09-10T16:21:28.868Z,99.90
2022-09-10T16:23:57.643Z,99.90
2022-09-10T16:26:27.621Z,99.90
2022-09-10T16:28:57.257Z,99.90
2022-09-10T16:31:30.434Z,99.90
2022-09-10T16:34:01.965Z,99.90
2022-09-10T16:36:31.286Z,99.90
2022-09-10T16:39:01.597Z,99.90
2022-09-10T16:41:29.426Z,99.90
2022-09-10T16:44:00.611Z,99.90
2022-09-10T16:46:28.543Z,99.90
2022-09-10T16:48:56.783Z,99.90
2022-09-10T16:51:25.444Z,99.90
2022-09-10T16:54:03.668Z,99.90
2022-09-10T16:56:42.380Z,99.90
2022-09-10T16:59:15.217Z,99.90
2022-09-10T17:01:44.274Z,99.90
2022-09-10T17:04:19.824Z,99.90
2022-09-10T17:06:48.922Z,99.90
2022-09-10T17:09:15.879Z,99.90
2022-09-10T17:11:42.832Z,99.90
2022-09-10T17:14:11.413Z,99.90
2022-09-10T17:16:44.945Z,99.90
2022-09-10T17:19:14.670Z,99.90
2022-09-10T17:21:45.370Z,99.90
2022-09-10T17:24:13.259Z,99.90
2022-09-10T17:26:41.395Z,99.90
2022-09-10T17:29:11.391Z,99.90
2022-09-10T17:31:39.405Z,99.90
2022-09-10T17:34:07.582Z,99.90
2022-09-10T17:36:35.247Z,99.90
2022-09-10T17:39:02.060Z,99.90
2022-09-10T17:41:30.073Z,99.90
2022-09-10T17:43:59.843Z,99.90
2022-09-10T17:46:27.762Z,99.90
2022-09-10T17:48:55.178Z,99.90
2022-09-10T17:51:25.517Z,99.90
2022-09-10T17:53:55.274Z,99.90
2022-09-10T17:56:23.942Z,99.90
2022-09-10T17:58:57.455Z,99.90
2022-09-10T18:01:27.926Z,99.90
2022-09-10T18:03:55.403Z,99.90
2022-09-10T18:06:24.702Z,99.90
2022-09-10T18:08:54.142Z,99.90
2022-09-10T18:11:24.044Z,99.90
2022-09-10T18:13:52.621Z,99.90
2022-09-10T18:16:22.109Z,99.90
2022-09-10T18:18:55.915Z,99.90
2022-09-10T18:21:25.956Z,99.90
2022-09-10T18:23:56.407Z,99.90
2022-09-10T18:26:25.499Z,99.90
2022-09-10T18:28:54.102Z,99.90
2022-09-10T18:31:26.694Z,99.90
2022-09-10T18:33:55.877Z,99.90
2022-09-10T18:36:25.103Z,99.90
2022-09-10T18:38:53.302Z,99.90
2022-09-10T18:41:29.164Z,99.90
2022-09-10T18:43:58.655Z,99.90
2022-09-10T18:46:31.210Z,99.90
2022-09-10T18:48:58.974Z,99.90
2022-09-10T18:51:28.269Z,99.90
2022-09-10T18:54:00.435Z,99.90
2022-09-10T18:56:31.797Z,99.90
2022-09-10T18:59:08.951Z,99.90
2022-09-10T19:01:38.455Z,99.90
2022-09-10T19:04:14.951Z,99.90
2022-09-10T19:06:44.799Z,99.90
2022-09-10T19:09:14.450Z,99.90
2022-09-10T19:11:44.496Z,99.90
2022-09-10T19:14:19.764Z,99.90
2022-09-10T19:16:48.354Z,99.90
2022-09-10T19:19:18.836Z,99.90
2022-09-10T19:21:49.665Z,99.90
2022-09-10T19:24:17.722Z,99.90
2022-09-10T19:26:44.938Z,99.90
2022-09-10T19:29:16.933Z,99.90
2022-09-10T19:31:46.280Z,99.90
2022-09-10T19:34:15.685Z,99.90
2022-09-10T19:36:44.504Z,99.90
2022-09-10T19:39:14.012Z,99.90
2022-09-10T19:41:42.841Z,99.90
2022-09-10T19:44:14.642Z,99.90
2022-09-10T19:46:45.110Z,99.90
2022-09-10T19:49:13.524Z,99.90
2022-09-10T19:51:41.814Z,99.90
2022-09-10T19:54:10.195Z,99.90
2022-09-10T19:56:40.138Z,99.90
2022-09-10T19:59:09.943Z,99.90
2022-09-10T20:01:41.636Z,99.90
2022-09-10T20:04:11.728Z,99.90
2022-09-10T20:06:39.433Z,99.90
2022-09-10T20:09:08.986Z,99.90
2022-09-10T20:11:36.808Z,99.90
2022-09-10T20:14:10.423Z,99.90
2022-09-10T20:16:42.920Z,99.90
2022-09-10T20:19:13.321Z,99.90
2022-09-10T20:21:40.593Z,99.90
2022-09-10T20:24:08.278Z,99.90
2022-09-10T20:26:41.235Z,99.90
2022-09-10T20:29:12.622Z,99.90
2022-09-10T20:31:43.905Z,99.90
2022-09-10T20:34:13.864Z,99.90
2022-09-10T20:36:46.678Z,99.90
2022-09-10T20:39:17.252Z,99.90
2022-09-10T20:41:46.916Z,99.90
2022-09-10T20:44:20.903Z,99.90
2022-09-10T20:46:48.202Z,99.90
2022-09-10T20:49:16.550Z,99.90
2022-09-10T20:51:44.667Z,99.90
2022-09-10T20:54:13.532Z,99.90
2022-09-10T20:56:40.691Z,99.90
2022-09-10T20:59:07.796Z,99.90
2022-09-10T21:01:35.614Z,99.90
2022-09-10T21:04:05.257Z,99.90
2022-09-10T21:06:35.385Z,99.90
2022-09-10T21:09:10.404Z,99.90
2022-09-10T21:11:37.887Z,99.90
2022-09-10T21:14:14.620Z,99.90
2022-09-10T21:16:47.533Z,99.90
2022-09-10T21:19:18.861Z,99.90
2022-09-10T21:21:53.859Z,99.90
2022-09-10T21:24:23.195Z,99.90
2022-09-10T21:26:53.648Z,99.90
2022-09-10T21:29:21.358Z,99.90
2022-09-10T21:31:50.796Z,99.90
2022-09-10T21:34:19.376Z,99.90
2022-09-10T21:36:46.915Z,99.90
2022-09-10T21:39:17.920Z,99.90
2022-09-10T21:41:49.871Z,99.90
2022-09-10T21:44:20.765Z,99.90
2022-09-10T21:46:48.911Z,99.90
2022-09-10T21:49:16.460Z,99.90
2022-09-10T21:51:45.148Z,99.90
2022-09-10T21:54:15.390Z,99.90
2022-09-10T21:56:42.406Z,99.90
2022-09-10T21:59:11.266Z,99.90
2022-09-10T22:01:40.175Z,99.90
2022-09-10T22:04:07.407Z,99.90
2022-09-10T22:06:35.902Z,99.90
2022-09-10T22:09:12.415Z,99.90
2022-09-10T22:11:50.344Z,99.90
2022-09-10T22:14:20.959Z,99.90
2022-09-10T22:16:48.320Z,99.90
2022-09-10T22:19:24.022Z,99.90
2022-09-10T22:21:54.200Z,99.90
2022-09-10T22:24:26.062Z,99.90
2022-09-10T22:26:53.249Z,99.90
2022-09-10T22:29:20.529Z,99.90
2022-09-10T22:31:48.113Z,99.90
2022-09-10T22:34:17.087Z,99.90
2022-09-10T22:36:45.817Z,99.90
2022-09-10T22:39:22.275Z,99.90
2022-09-10T22:41:50.521Z,99.90
2022-09-10T22:44:18.349Z,99.90
2022-09-10T22:46:45.643Z,99.90
2022-09-10T22:49:16.005Z,99.90
2022-09-10T22:51:43.455Z,99.90
2022-09-10T22:54:10.819Z,99.90
2022-09-10T22:56:38.880Z,99.90
2022-09-10T22:59:06.793Z,99.90
2022-09-10T23:01:40.573Z,99.90
2022-09-10T23:04:08.313Z,99.90
2022-09-10T23:06:37.820Z,99.90
2022-09-10T23:09:16.529Z,99.90
2022-09-10T23:11:44.744Z,99.90
2022-09-10T23:14:13.017Z,99.90
2022-09-10T23:16:43.140Z,99.90
2022-09-10T23:19:13.934Z,99.90
2022-09-10T23:21:46.209Z,99.90
2022-09-10T23:24:16.661Z,99.90
2022-09-10T23:26:44.755Z,99.90
2022-09-10T23:29:12.534Z,99.90
2022-09-10T23:31:41.034Z,99.90
2022-09-10T23:34:13.618Z,99.90
2022-09-10T23:36:44.382Z,99.90
2022-09-10T23:39:15.638Z,99.90
2022-09-10T23:41:42.875Z,99.90
2022-09-10T23:44:10.382Z,99.90
2022-09-10T23:46:37.536Z,99.90
2022-09-10T23:49:05.692Z,99.90
2022-09-10T23:51:32.919Z,99.90
2022-09-10T23:54:00.080Z,99.90
2022-09-10T23:56:28.489Z,99.90
2022-09-10T23:58:59.275Z,99.90
